K0CO

Empire

Empire, Colorado, USA
METAR K0CO 181448Z AUTO 33020G23KT 10SM OVC003 03/M04 A3068 RMK AO2 LTG DSNT SW
Observed Flight Rules
Aug-18 @ 14:48 UTC (4 minutes ago) Instrument Flight Rules
Wind Visibility Clouds
330° at 20 knots
 Gusting to 23 knots
10 miles
  • Overcast at 300' AGL
Temperatures Readings
Current 3°C / 37°F
Dewpoint -4°C / 25°F
Humidity 60%
Altimeter 30.68" Hg
Pressure 1039 hPa
Elevation 3807
METAR K0CO 181448Z AUTO 33020G23KT 10SM OVC003 03/M04 A3068 RMK AO2 LTG DSNT SW
Observed Flight Rules
Aug-18 @ 14:48 UTC
(4 minutes ago)
LIFR
Wind Visibility
330° at 20 knots
 Gusting to 23 knots
10 miles
Clouds
  • Overcast at 300' AGL
Temperature Dewpoint
3°C / 37°F -4°C / 25°F
Humidity Altimeter Pressure
60% 30.68" Hg 1039 hPa